createdAt,value
2023-01-29T00:00:00.364Z,977.03
2023-01-29T00:01:00.302Z,977.05
2023-01-29T00:02:00.347Z,977.01
2023-01-29T00:03:00.246Z,977.04
2023-01-29T00:04:00.140Z,977.02
2023-01-29T00:05:10.031Z,976.99
2023-01-29T00:06:00.006Z,977.02
2023-01-29T00:06:59.960Z,976.97
2023-01-29T00:07:59.874Z,976.99
2023-01-29T00:08:59.807Z,977.00
2023-01-29T00:09:59.746Z,976.95
2023-01-29T00:10:59.692Z,976.95
2023-01-29T00:11:59.646Z,976.98
2023-01-29T00:12:59.560Z,976.97
2023-01-29T00:13:59.500Z,976.95
2023-01-29T00:14:59.445Z,976.94
2023-01-29T00:15:59.376Z,976.97
2023-01-29T00:16:59.328Z,976.98
2023-01-29T00:17:59.270Z,976.99
2023-01-29T00:18:59.204Z,976.97
2023-01-29T00:19:59.127Z,976.94
2023-01-29T00:20:59.072Z,976.92
2023-01-29T00:21:59.009Z,976.92
2023-01-29T00:22:58.959Z,976.92
2023-01-29T00:23:58.913Z,976.96
2023-01-29T00:24:58.830Z,977.01
2023-01-29T00:25:58.767Z,977.01
2023-01-29T00:26:58.717Z,976.99
2023-01-29T00:27:58.646Z,977.03
2023-01-29T00:28:58.589Z,977.03
2023-01-29T00:29:58.540Z,977.04
2023-01-29T00:30:58.592Z,976.95
2023-01-29T00:31:58.536Z,976.98
2023-01-29T00:32:58.356Z,976.96
2023-01-29T00:33:58.276Z,976.99
2023-01-29T00:34:58.205Z,976.95
2023-01-29T00:35:58.145Z,976.99
2023-01-29T00:36:58.092Z,976.95
2023-01-29T00:37:58.035Z,976.92
2023-01-29T00:38:57.969Z,976.94
2023-01-29T00:39:57.981Z,976.92
2023-01-29T00:40:57.870Z,976.91
2023-01-29T00:41:57.779Z,976.86
2023-01-29T00:42:57.729Z,976.85
2023-01-29T00:43:57.654Z,976.84
2023-01-29T00:44:57.590Z,976.85
2023-01-29T00:45:57.531Z,976.81
2023-01-29T00:46:57.515Z,976.82
2023-01-29T00:47:57.421Z,976.83
2023-01-29T00:48:57.637Z,976.83
2023-01-29T00:49:57.283Z,976.79
2023-01-29T00:50:57.227Z,976.82
2023-01-29T00:51:57.170Z,976.75
2023-01-29T00:52:57.110Z,976.74
2023-01-29T00:53:57.083Z,976.69
2023-01-29T00:54:56.986Z,976.69
2023-01-29T00:55:56.918Z,976.69
2023-01-29T00:56:56.859Z,976.66
2023-01-29T00:57:56.804Z,976.67
2023-01-29T00:58:57.355Z,976.67
2023-01-29T00:59:56.679Z,976.68
2023-01-29T01:00:56.659Z,976.64
2023-01-29T01:01:56.575Z,976.62
2023-01-29T01:02:56.488Z,976.65
2023-01-29T01:03:56.437Z,976.64
2023-01-29T01:04:56.372Z,976.70
2023-01-29T01:05:56.306Z,976.72
2023-01-29T01:06:56.246Z,976.72
2023-01-29T01:07:56.201Z,976.68
2023-01-29T01:08:56.126Z,976.72
2023-01-29T01:09:56.055Z,976.70
2023-01-29T01:10:56.001Z,976.70
2023-01-29T01:11:55.956Z,976.68
2023-01-29T01:12:55.885Z,976.69
2023-01-29T01:13:55.821Z,976.68
2023-01-29T01:14:55.808Z,976.68
2023-01-29T01:15:55.720Z,976.69
2023-01-29T01:16:55.623Z,976.70
2023-01-29T01:17:55.560Z,976.67
2023-01-29T01:18:55.518Z,976.65
2023-01-29T01:19:55.456Z,976.63
2023-01-29T01:20:55.375Z,976.66
2023-01-29T01:21:55.320Z,976.64
2023-01-29T01:22:55.262Z,976.67
2023-01-29T01:23:55.252Z,976.68
2023-01-29T01:24:55.143Z,976.61
2023-01-29T01:25:55.079Z,976.63
2023-01-29T01:26:55.013Z,976.61
2023-01-29T01:27:54.954Z,976.59
2023-01-29T01:28:54.885Z,976.57
2023-01-29T01:29:54.880Z,976.55
2023-01-29T01:30:54.786Z,976.47
2023-01-29T01:31:54.718Z,976.48
2023-01-29T01:32:54.653Z,976.48
2023-01-29T01:33:54.583Z,976.45
2023-01-29T01:34:54.527Z,976.45
2023-01-29T01:35:54.485Z,976.42
2023-01-29T01:36:54.389Z,976.46
2023-01-29T01:37:54.335Z,976.44
2023-01-29T01:38:54.290Z,976.46
2023-01-29T01:39:54.221Z,976.46
2023-01-29T01:40:54.159Z,976.41
2023-01-29T01:41:54.091Z,976.34
2023-01-29T01:42:54.027Z,976.32
2023-01-29T01:43:54.018Z,976.35
2023-01-29T01:44:53.908Z,976.32
2023-01-29T01:45:53.936Z,976.28
2023-01-29T01:46:53.771Z,976.28
2023-01-29T01:47:53.736Z,976.29
2023-01-29T01:48:53.658Z,976.29
2023-01-29T01:49:53.609Z,976.20
2023-01-29T01:50:53.543Z,976.18
2023-01-29T01:51:53.481Z,976.16
2023-01-29T01:52:53.406Z,976.16
2023-01-29T01:53:53.355Z,976.14
2023-01-29T01:54:53.305Z,976.14
2023-01-29T01:55:53.217Z,976.12
2023-01-29T01:56:53.157Z,976.13
2023-01-29T01:57:53.096Z,976.10
2023-01-29T01:58:53.055Z,976.10
2023-01-29T01:59:52.981Z,976.10
2023-01-29T02:00:52.948Z,976.10
2023-01-29T02:01:52.876Z,976.13
2023-01-29T02:02:52.796Z,976.14
2023-01-29T02:03:52.733Z,976.11
2023-01-29T02:04:52.673Z,976.12
2023-01-29T02:05:52.620Z,976.10
2023-01-29T02:06:52.550Z,976.07
2023-01-29T02:07:52.488Z,976.08
2023-01-29T02:08:52.435Z,976.10
2023-01-29T02:09:52.356Z,976.05
2023-01-29T02:10:52.316Z,976.07
2023-01-29T02:11:52.239Z,976.08
2023-01-29T02:12:52.189Z,976.11
2023-01-29T02:13:52.116Z,976.11
2023-01-29T02:14:52.066Z,976.09
2023-01-29T02:15:52.010Z,976.11
2023-01-29T02:16:51.937Z,976.14
2023-01-29T02:17:51.893Z,976.15
2023-01-29T02:18:51.802Z,976.12
2023-01-29T02:19:51.748Z,976.14
2023-01-29T02:20:51.682Z,976.15
2023-01-29T02:21:51.684Z,976.16
2023-01-29T02:22:51.561Z,976.13
2023-01-29T02:23:51.606Z,976.14
2023-01-29T02:24:51.463Z,976.15
2023-01-29T02:25:51.391Z,976.20
2023-01-29T02:26:51.328Z,976.24
2023-01-29T02:27:51.244Z,976.30
2023-01-29T02:28:51.204Z,976.35
2023-01-29T02:29:51.143Z,976.32
2023-01-29T02:30:51.092Z,976.36
2023-01-29T02:31:51.066Z,976.41
2023-01-29T02:32:50.937Z,976.41
2023-01-29T02:33:50.873Z,976.44
2023-01-29T02:34:50.811Z,976.50
2023-01-29T02:35:50.755Z,976.51
2023-01-29T02:36:50.685Z,976.53
2023-01-29T02:37:50.645Z,976.58
2023-01-29T02:38:50.565Z,976.59
2023-01-29T02:39:50.501Z,976.60
2023-01-29T02:40:50.447Z,976.61
2023-01-29T02:41:50.402Z,976.57
2023-01-29T02:42:50.324Z,976.58
2023-01-29T02:43:50.259Z,976.61
2023-01-29T02:44:50.194Z,976.63
2023-01-29T02:45:50.153Z,976.64
2023-01-29T02:46:50.071Z,976.70
2023-01-29T02:47:50.034Z,976.66
2023-01-29T02:48:49.961Z,976.73
2023-01-29T02:49:49.893Z,976.73
2023-01-29T02:50:49.832Z,976.75
2023-01-29T02:51:49.792Z,976.76
2023-01-29T02:52:49.722Z,976.75
2023-01-29T02:53:49.642Z,976.76
2023-01-29T02:54:49.590Z,976.72
2023-01-29T02:55:49.515Z,976.68
2023-01-29T02:56:49.464Z,976.65
2023-01-29T02:57:49.443Z,976.69
2023-01-29T02:58:49.328Z,976.70
2023-01-29T02:59:49.280Z,976.67
2023-01-29T03:00:49.245Z,976.66
2023-01-29T03:01:49.176Z,976.66
2023-01-29T03:02:49.164Z,976.67
2023-01-29T03:03:49.022Z,976.65
2023-01-29T03:04:48.958Z,976.67
2023-01-29T03:05:48.897Z,976.68
2023-01-29T03:06:48.845Z,976.63
2023-01-29T03:07:48.787Z,976.64
2023-01-29T03:08:48.739Z,976.58
2023-01-29T03:09:48.659Z,976.56
2023-01-29T03:10:48.589Z,976.54
2023-01-29T03:11:48.560Z,976.56
2023-01-29T03:12:48.489Z,976.53
2023-01-29T03:13:48.404Z,976.53
2023-01-29T03:14:48.354Z,976.50
2023-01-29T03:15:48.284Z,976.49
2023-01-29T03:16:48.251Z,976.47
2023-01-29T03:17:48.179Z,976.48
2023-01-29T03:18:48.101Z,976.50
2023-01-29T03:19:48.049Z,976.48
2023-01-29T03:20:47.978Z,976.42
2023-01-29T03:21:47.932Z,976.42
2023-01-29T03:22:47.849Z,976.42
2023-01-29T03:23:47.793Z,976.45
2023-01-29T03:24:47.726Z,976.48
2023-01-29T03:25:47.663Z,976.53
2023-01-29T03:26:47.620Z,976.54
2023-01-29T03:27:47.540Z,976.57
2023-01-29T03:28:47.480Z,976.57
2023-01-29T03:29:47.427Z,976.54
2023-01-29T03:30:47.391Z,976.54
2023-01-29T03:31:47.376Z,976.57
2023-01-29T03:32:47.229Z,976.56
2023-01-29T03:33:47.184Z,976.57
2023-01-29T03:34:47.119Z,976.59
2023-01-29T03:35:47.051Z,976.56
2023-01-29T03:36:46.999Z,976.52
2023-01-29T03:37:46.949Z,976.46
2023-01-29T03:38:46.864Z,976.44
2023-01-29T03:39:46.801Z,976.43
2023-01-29T03:40:46.742Z,976.48
2023-01-29T03:41:46.673Z,976.45
2023-01-29T03:42:46.622Z,976.48
2023-01-29T03:43:46.547Z,976.47
2023-01-29T03:44:48.915Z,976.48
2023-01-29T03:45:46.443Z,976.45
2023-01-29T03:46:46.362Z,976.46
2023-01-29T03:47:46.325Z,976.47
2023-01-29T03:48:46.248Z,976.46
2023-01-29T03:49:46.186Z,976.44
2023-01-29T03:50:46.119Z,976.42
2023-01-29T03:51:46.056Z,976.42
2023-01-29T03:52:46.012Z,976.43
2023-01-29T03:53:45.930Z,976.45
2023-01-29T03:54:45.883Z,976.43
2023-01-29T03:55:45.820Z,976.44
2023-01-29T03:56:45.748Z,976.45
2023-01-29T03:57:45.714Z,976.48
2023-01-29T03:58:45.629Z,976.52
2023-01-29T03:59:45.565Z,976.49
2023-01-29T04:00:45.509Z,976.51
2023-01-29T04:01:45.472Z,976.48
2023-01-29T04:02:45.379Z,976.46
2023-01-29T04:03:45.357Z,976.47
2023-01-29T04:04:45.256Z,976.46
2023-01-29T04:05:45.201Z,976.42
2023-01-29T04:06:45.139Z,976.46
2023-01-29T04:07:45.086Z,976.45
2023-01-29T04:08:45.006Z,976.48
2023-01-29T04:09:44.935Z,976.45
2023-01-29T04:10:44.887Z,976.49
2023-01-29T04:11:44.820Z,976.47
2023-01-29T04:12:44.777Z,976.49
2023-01-29T04:13:44.705Z,976.51
2023-01-29T04:14:44.651Z,976.55
2023-01-29T04:15:44.576Z,976.53
2023-01-29T04:16:44.573Z,976.58
2023-01-29T04:17:44.446Z,976.59
2023-01-29T04:18:44.401Z,976.55
2023-01-29T04:19:44.330Z,976.55
2023-01-29T04:20:44.312Z,976.54
2023-01-29T04:21:44.219Z,976.52
2023-01-29T04:22:44.140Z,976.47
2023-01-29T04:23:44.092Z,976.45
2023-01-29T04:24:44.019Z,976.43
2023-01-29T04:25:43.952Z,976.40
2023-01-29T04:26:43.892Z,976.33
2023-01-29T04:27:43.829Z,976.32
2023-01-29T04:28:43.782Z,976.31
2023-01-29T04:29:43.707Z,976.30
2023-01-29T04:30:43.713Z,976.32
2023-01-29T04:31:43.617Z,976.36
2023-01-29T04:32:43.514Z,976.36
2023-01-29T04:33:43.476Z,976.35
2023-01-29T04:34:43.400Z,976.27
2023-01-29T04:35:43.332Z,976.29
2023-01-29T04:36:43.264Z,976.26
2023-01-29T04:37:43.214Z,976.26
2023-01-29T04:38:43.142Z,976.25
2023-01-29T04:39:43.077Z,976.23
2023-01-29T04:40:43.024Z,976.25
2023-01-29T04:41:42.954Z,976.20
2023-01-29T04:42:42.909Z,976.23
2023-01-29T04:43:42.845Z,976.22
2023-01-29T04:44:42.791Z,976.24
2023-01-29T04:45:42.705Z,976.26
2023-01-29T04:46:42.653Z,976.28
2023-01-29T04:47:42.644Z,976.28
2023-01-29T04:48:42.543Z,976.33
2023-01-29T04:49:42.457Z,976.33
2023-01-29T04:50:42.399Z,976.31
2023-01-29T04:51:42.333Z,976.35
2023-01-29T04:52:42.270Z,976.38
2023-01-29T04:53:42.227Z,976.41
2023-01-29T04:54:42.165Z,976.40
2023-01-29T04:55:42.110Z,976.43
2023-01-29T04:56:42.021Z,976.45
2023-01-29T04:57:41.983Z,976.42
2023-01-29T04:58:41.914Z,976.41
2023-01-29T04:59:41.856Z,976.42
2023-01-29T05:00:41.778Z,976.46
2023-01-29T05:01:41.840Z,976.43
2023-01-29T05:02:41.719Z,976.41
2023-01-29T05:03:41.607Z,976.43
2023-01-29T05:04:41.552Z,976.43
2023-01-29T05:05:41.472Z,976.36
2023-01-29T05:06:41.416Z,976.34
2023-01-29T05:07:41.351Z,976.31
2023-01-29T05:08:41.295Z,976.27
2023-01-29T05:09:41.226Z,976.25
2023-01-29T05:10:41.164Z,976.24
2023-01-29T05:11:41.093Z,976.22
2023-01-29T05:12:41.042Z,976.24
2023-01-29T05:13:41.000Z,976.28
2023-01-29T05:14:40.908Z,976.29
2023-01-29T05:15:41.006Z,976.30
2023-01-29T05:16:40.786Z,976.29
2023-01-29T05:17:40.727Z,976.29
2023-01-29T05:18:40.674Z,976.26
2023-01-29T05:19:40.628Z,976.26
2023-01-29T05:20:40.551Z,976.24
2023-01-29T05:21:41.209Z,976.24
2023-01-29T05:22:40.420Z,976.18
2023-01-29T05:23:40.372Z,976.15
2023-01-29T05:24:40.298Z,976.14
2023-01-29T05:25:40.236Z,976.07
2023-01-29T05:26:40.183Z,976.04
2023-01-29T05:27:40.116Z,976.02
2023-01-29T05:28:40.043Z,976.04
2023-01-29T05:29:39.998Z,976.01
2023-01-29T05:30:39.972Z,975.98
2023-01-29T05:31:39.892Z,975.96
2023-01-29T05:32:39.822Z,976.01
2023-01-29T05:33:39.759Z,976.00
2023-01-29T05:34:39.677Z,976.00
2023-01-29T05:35:39.625Z,976.05
2023-01-29T05:36:39.543Z,976.11
2023-01-29T05:37:39.495Z,976.11
2023-01-29T05:38:39.434Z,976.17
2023-01-29T05:39:39.380Z,976.19
2023-01-29T05:40:39.297Z,976.19
2023-01-29T05:41:39.240Z,976.18
2023-01-29T05:42:39.172Z,976.13
2023-01-29T05:43:39.136Z,976.15
2023-01-29T05:44:39.057Z,976.15
2023-01-29T05:45:38.985Z,976.12
2023-01-29T05:46:39.024Z,976.16
2023-01-29T05:47:38.883Z,976.17
2023-01-29T05:48:38.812Z,976.21
2023-01-29T05:49:38.897Z,976.17
2023-01-29T05:50:38.685Z,976.20
2023-01-29T05:51:38.612Z,976.13
2023-01-29T05:52:38.569Z,976.19
2023-01-29T05:53:38.497Z,976.20
2023-01-29T05:54:38.466Z,976.19
2023-01-29T05:55:38.372Z,976.16
2023-01-29T05:56:38.310Z,976.19
2023-01-29T05:57:38.250Z,976.23
2023-01-29T05:58:38.199Z,976.27
2023-01-29T05:59:38.126Z,976.32
2023-01-29T06:00:38.070Z,976.30
2023-01-29T06:01:38.016Z,976.28
2023-01-29T06:02:37.982Z,976.26
2023-01-29T06:03:37.867Z,976.25
2023-01-29T06:04:37.806Z,976.23
2023-01-29T06:05:37.768Z,976.24
2023-01-29T06:06:37.690Z,976.27
2023-01-29T06:07:37.638Z,976.26
2023-01-29T06:08:37.565Z,976.26
2023-01-29T06:09:37.494Z,976.26
2023-01-29T06:10:37.448Z,976.23
2023-01-29T06:11:37.379Z,976.21
2023-01-29T06:12:37.308Z,976.16
2023-01-29T06:13:37.246Z,976.11
2023-01-29T06:14:37.200Z,976.10
2023-01-29T06:15:37.137Z,976.09
2023-01-29T06:16:37.085Z,976.05
2023-01-29T06:17:37.008Z,975.98
2023-01-29T06:18:36.936Z,975.93
2023-01-29T06:19:36.882Z,975.94
2023-01-29T06:20:36.815Z,975.89
2023-01-29T06:21:36.773Z,975.92
2023-01-29T06:22:36.708Z,975.91
2023-01-29T06:23:36.639Z,975.90
2023-01-29T06:24:36.577Z,975.90
2023-01-29T06:25:36.516Z,975.89
2023-01-29T06:26:36.446Z,975.86
2023-01-29T06:27:36.378Z,975.84
2023-01-29T06:28:36.327Z,975.86
2023-01-29T06:29:36.250Z,975.85
2023-01-29T06:30:36.225Z,975.88
2023-01-29T06:31:39.046Z,975.93
2023-01-29T06:32:36.188Z,975.93
2023-01-29T06:33:36.004Z,975.95
2023-01-29T06:34:35.948Z,975.94
2023-01-29T06:35:35.882Z,975.98
2023-01-29T06:36:35.830Z,975.95
2023-01-29T06:37:35.755Z,976.00
2023-01-29T06:38:35.703Z,975.99
2023-01-29T06:39:35.635Z,976.04
2023-01-29T06:40:35.581Z,976.05
2023-01-29T06:41:35.513Z,976.04
2023-01-29T06:42:35.471Z,976.04
2023-01-29T06:43:35.393Z,976.04
2023-01-29T06:44:35.329Z,976.02
2023-01-29T06:45:35.300Z,976.04
2023-01-29T06:46:35.203Z,976.07
2023-01-29T06:47:35.144Z,976.09
2023-01-29T06:48:35.076Z,976.13
2023-01-29T06:49:35.011Z,976.13
2023-01-29T06:50:34.970Z,976.11
2023-01-29T06:51:34.893Z,976.13
2023-01-29T06:52:34.831Z,976.14
2023-01-29T06:53:34.774Z,976.11
2023-01-29T06:54:34.727Z,976.16
2023-01-29T06:55:34.643Z,976.10
2023-01-29T06:56:34.604Z,976.14
2023-01-29T06:57:34.555Z,976.20
2023-01-29T06:58:34.477Z,976.23
2023-01-29T06:59:34.407Z,976.24
2023-01-29T07:00:34.431Z,976.32
2023-01-29T07:01:36.376Z,976.34
2023-01-29T07:02:34.210Z,976.39
2023-01-29T07:03:34.146Z,976.44
2023-01-29T07:04:34.100Z,976.47
2023-01-29T07:05:34.014Z,976.45
2023-01-29T07:06:33.968Z,976.46
2023-01-29T07:07:33.892Z,976.47
2023-01-29T07:08:33.829Z,976.47
2023-01-29T07:09:33.805Z,976.45
2023-01-29T07:10:33.705Z,976.43
2023-01-29T07:11:33.650Z,976.45
2023-01-29T07:12:33.590Z,976.43
2023-01-29T07:13:33.519Z,976.43
2023-01-29T07:14:33.464Z,976.44
2023-01-29T07:15:33.427Z,976.39
2023-01-29T07:16:33.406Z,976.43
2023-01-29T07:17:33.279Z,976.37
2023-01-29T07:18:33.240Z,976.33
2023-01-29T07:19:33.156Z,976.31
2023-01-29T07:20:33.086Z,976.29
2023-01-29T07:21:33.031Z,976.32
2023-01-29T07:22:32.987Z,976.27
2023-01-29T07:23:32.954Z,976.24
2023-01-29T07:24:32.914Z,976.24
2023-01-29T07:25:32.776Z,976.22
2023-01-29T07:26:32.713Z,976.26
2023-01-29T07:27:32.674Z,976.28
2023-01-29T07:28:32.586Z,976.27
2023-01-29T07:29:32.543Z,976.31
2023-01-29T07:30:32.480Z,976.32
2023-01-29T07:31:32.466Z,976.35
2023-01-29T07:32:32.341Z,976.33
2023-01-29T07:33:32.300Z,976.33
2023-01-29T07:34:32.220Z,976.35
2023-01-29T07:35:32.162Z,976.34
2023-01-29T07:36:32.092Z,976.30
2023-01-29T07:37:32.045Z,976.28
2023-01-29T07:38:31.971Z,976.33
2023-01-29T07:39:31.905Z,976.30
2023-01-29T07:40:31.857Z,976.32
2023-01-29T07:41:31.784Z,976.34
2023-01-29T07:42:31.737Z,976.33
2023-01-29T07:43:31.673Z,976.35
2023-01-29T07:44:31.595Z,976.32
2023-01-29T07:45:31.588Z,976.31
2023-01-29T07:46:31.473Z,976.32
2023-01-29T07:47:31.420Z,976.35
2023-01-29T07:48:31.356Z,976.45
2023-01-29T07:49:31.316Z,976.50
2023-01-29T07:50:31.221Z,976.51
2023-01-29T07:51:31.181Z,976.52
2023-01-29T07:52:31.103Z,976.55
2023-01-29T07:53:31.050Z,976.53
2023-01-29T07:54:30.986Z,976.59
2023-01-29T07:55:30.944Z,976.58
2023-01-29T07:56:30.875Z,976.55
2023-01-29T07:57:30.804Z,976.60
2023-01-29T07:58:30.744Z,976.61
2023-01-29T07:59:30.675Z,976.64
2023-01-29T08:00:30.606Z,976.60
2023-01-29T08:01:30.596Z,976.58
2023-01-29T08:02:30.576Z,976.62
2023-01-29T08:03:30.423Z,976.67
2023-01-29T08:04:30.361Z,976.67
2023-01-29T08:05:30.297Z,976.74
2023-01-29T08:06:30.244Z,976.78
2023-01-29T08:07:30.167Z,976.73
2023-01-29T08:08:30.108Z,976.77
2023-01-29T08:09:30.053Z,976.73
2023-01-29T08:10:30.009Z,976.74
2023-01-29T08:11:29.928Z,976.70
2023-01-29T08:12:29.860Z,976.69
2023-01-29T08:13:29.796Z,976.68
2023-01-29T08:14:29.744Z,976.72
2023-01-29T08:15:29.707Z,976.72
2023-01-29T08:16:29.714Z,976.73
2023-01-29T08:17:29.550Z,976.72
2023-01-29T08:18:29.495Z,976.72
2023-01-29T08:19:29.430Z,976.66
2023-01-29T08:20:29.380Z,976.66
2023-01-29T08:21:29.302Z,976.59
2023-01-29T08:22:29.260Z,976.58
2023-01-29T08:23:29.198Z,976.56
2023-01-29T08:24:41.512Z,976.53
2023-01-29T08:25:29.124Z,976.50
2023-01-29T08:26:28.999Z,976.55
2023-01-29T08:27:28.935Z,976.54
2023-01-29T08:28:28.878Z,976.49
2023-01-29T08:29:28.811Z,976.48
2023-01-29T08:30:28.821Z,976.49
2023-01-29T08:31:28.707Z,976.47
2023-01-29T08:32:28.623Z,976.47
2023-01-29T08:34:28.516Z,976.39
2023-01-29T08:35:28.442Z,976.37
2023-01-29T08:36:28.392Z,976.37
2023-01-29T08:37:28.311Z,976.37
2023-01-29T08:38:28.275Z,976.38
2023-01-29T08:39:28.190Z,976.41
2023-01-29T08:40:28.131Z,976.41
2023-01-29T08:41:28.067Z,976.45
2023-01-29T08:42:28.019Z,976.45
2023-01-29T08:43:27.949Z,976.44
2023-01-29T08:44:27.904Z,976.48
2023-01-29T08:45:27.823Z,976.51
2023-01-29T08:46:27.776Z,976.56
2023-01-29T08:47:28.738Z,976.57
2023-01-29T08:48:27.638Z,976.51
2023-01-29T08:49:27.577Z,976.45
2023-01-29T08:50:27.519Z,976.48
2023-01-29T08:51:27.471Z,976.49
2023-01-29T08:52:27.383Z,976.51
2023-01-29T08:53:27.344Z,976.59
2023-01-29T08:54:27.264Z,976.60
2023-01-29T08:55:27.226Z,976.58
2023-01-29T08:56:27.154Z,976.58
2023-01-29T08:57:27.081Z,976.59
2023-01-29T08:58:27.039Z,976.60
2023-01-29T08:59:26.966Z,976.54
2023-01-29T09:00:26.896Z,976.58
2023-01-29T09:01:26.853Z,976.54
2023-01-29T09:02:26.829Z,976.57
2023-01-29T09:03:26.730Z,976.68
2023-01-29T09:04:26.656Z,976.74
2023-01-29T09:05:26.593Z,976.78
2023-01-29T09:06:26.541Z,976.81
2023-01-29T09:07:26.470Z,976.81
2023-01-29T09:08:26.404Z,976.85
2023-01-29T09:09:26.350Z,976.87
2023-01-29T09:10:26.299Z,976.90
2023-01-29T09:11:26.221Z,976.91
2023-01-29T09:12:26.164Z,976.96
2023-01-29T09:13:26.097Z,977.01
2023-01-29T09:14:26.030Z,977.04
2023-01-29T09:15:25.989Z,977.13
2023-01-29T09:16:25.939Z,977.08
2023-01-29T09:17:25.855Z,977.06
2023-01-29T09:18:25.794Z,977.04
2023-01-29T09:19:25.723Z,977.08
2023-01-29T09:20:25.670Z,977.10
2023-01-29T09:21:25.595Z,977.15
2023-01-29T09:22:25.568Z,977.17
2023-01-29T09:23:25.492Z,977.24
2023-01-29T09:24:25.419Z,977.18
2023-01-29T09:25:25.375Z,977.20
2023-01-29T09:26:25.334Z,977.19
2023-01-29T09:27:25.243Z,977.23
2023-01-29T09:28:25.161Z,977.25
2023-01-29T09:29:25.117Z,977.22
2023-01-29T09:30:25.056Z,977.21
2023-01-29T09:31:25.093Z,977.18
2023-01-29T09:32:52.049Z,977.13
2023-01-29T09:33:24.855Z,977.08
2023-01-29T09:34:24.837Z,977.08
2023-01-29T09:35:24.753Z,977.10
2023-01-29T09:36:24.675Z,977.12
2023-01-29T09:37:24.612Z,977.13
2023-01-29T09:38:24.550Z,977.13
2023-01-29T09:39:24.505Z,977.06
2023-01-29T09:40:24.946Z,977.05
2023-01-29T09:41:24.390Z,977.04
2023-01-29T09:42:24.311Z,977.04
2023-01-29T09:43:24.247Z,977.08
2023-01-29T09:44:24.210Z,977.10
2023-01-29T09:45:24.126Z,977.09
2023-01-29T09:46:24.137Z,977.06
2023-01-29T09:47:23.994Z,977.04
2023-01-29T09:48:23.932Z,977.05
2023-01-29T09:49:23.892Z,977.05
2023-01-29T09:50:23.908Z,977.02
2023-01-29T09:51:23.770Z,977.01
2023-01-29T09:52:23.698Z,976.98
2023-01-29T09:53:23.633Z,976.95
2023-01-29T09:54:23.585Z,976.92
2023-01-29T09:55:23.502Z,976.92
2023-01-29T09:56:23.439Z,976.87
2023-01-29T09:57:23.391Z,976.86
2023-01-29T09:58:23.333Z,976.86
2023-01-29T09:59:23.278Z,976.84
2023-01-29T10:00:23.222Z,976.81
2023-01-29T10:01:23.192Z,976.78
2023-01-29T10:02:23.121Z,976.75
2023-01-29T10:03:23.033Z,976.70
2023-01-29T10:04:22.986Z,976.68
2023-01-29T10:05:22.893Z,976.70
2023-01-29T10:06:22.849Z,976.70
2023-01-29T10:07:22.779Z,976.72
2023-01-29T10:08:22.702Z,976.67
2023-01-29T10:09:22.650Z,976.58
2023-01-29T10:10:22.594Z,976.55
2023-01-29T10:11:22.543Z,976.48
2023-01-29T10:12:22.479Z,976.37
2023-01-29T10:13:22.404Z,976.28
2023-01-29T10:14:22.335Z,976.25
2023-01-29T10:15:22.279Z,976.24
2023-01-29T10:16:22.210Z,976.23
2023-01-29T10:17:22.222Z,976.29
2023-01-29T10:18:22.096Z,976.31
2023-01-29T10:19:22.035Z,976.29
2023-01-29T10:20:21.974Z,976.23
2023-01-29T10:21:21.927Z,976.25
2023-01-29T10:22:21.866Z,976.30
2023-01-29T10:23:21.793Z,976.29
2023-01-29T10:24:21.719Z,976.29
2023-01-29T10:25:21.666Z,976.38
2023-01-29T10:26:21.613Z,976.36
2023-01-29T10:27:21.547Z,976.40
2023-01-29T10:28:21.516Z,976.45
2023-01-29T10:29:21.421Z,976.51
2023-01-29T10:30:21.357Z,976.55
2023-01-29T10:31:21.370Z,976.56
2023-01-29T10:32:21.239Z,976.54
2023-01-29T10:33:21.183Z,976.50
2023-01-29T10:34:21.133Z,976.44
2023-01-29T10:35:21.045Z,976.42
2023-01-29T10:36:20.987Z,976.42
2023-01-29T10:37:20.945Z,976.40
2023-01-29T10:38:20.900Z,976.40
2023-01-29T10:39:20.810Z,976.34
2023-01-29T10:40:20.743Z,976.34
2023-01-29T10:41:20.698Z,976.31
2023-01-29T10:42:20.615Z,976.33
2023-01-29T10:43:20.563Z,976.27
2023-01-29T10:44:20.507Z,976.29
2023-01-29T10:45:20.730Z,976.37
2023-01-29T10:46:20.386Z,976.36
2023-01-29T10:47:20.404Z,976.33
2023-01-29T10:48:20.256Z,976.29
2023-01-29T10:49:20.214Z,976.26
2023-01-29T10:50:20.135Z,976.28
2023-01-29T10:51:20.091Z,976.23
2023-01-29T10:52:20.010Z,976.25
2023-01-29T10:53:19.956Z,976.27
2023-01-29T10:54:19.912Z,976.22
2023-01-29T10:55:19.821Z,976.15
2023-01-29T10:56:23.014Z,976.11
2023-01-29T10:57:19.705Z,976.08
2023-01-29T10:58:19.645Z,976.10
2023-01-29T10:59:19.590Z,976.06
2023-01-29T11:00:19.529Z,976.04
2023-01-29T11:01:19.496Z,975.98
2023-01-29T11:02:19.476Z,975.94
2023-01-29T11:03:27.654Z,975.86
2023-01-29T11:04:19.279Z,975.83
2023-01-29T11:05:19.233Z,975.82
2023-01-29T11:06:19.158Z,975.76
2023-01-29T11:07:19.175Z,975.73
2023-01-29T11:08:19.041Z,975.74
2023-01-29T11:09:19.000Z,975.70
2023-01-29T11:10:19.137Z,975.69
2023-01-29T11:11:18.857Z,975.71
2023-01-29T11:12:20.201Z,975.73
2023-01-29T11:13:18.759Z,975.67
2023-01-29T11:14:18.688Z,975.67
2023-01-29T11:15:18.614Z,975.66
2023-01-29T11:16:18.541Z,975.64
2023-01-29T11:17:18.541Z,975.61
2023-01-29T11:18:18.435Z,975.58
2023-01-29T11:19:18.381Z,975.54
2023-01-29T11:20:18.835Z,975.49
2023-01-29T11:21:18.235Z,975.42
2023-01-29T11:22:18.182Z,975.45
2023-01-29T11:23:18.140Z,975.39
2023-01-29T11:24:18.057Z,975.47
2023-01-29T11:25:18.038Z,975.42
2023-01-29T11:26:17.997Z,975.45
2023-01-29T11:27:17.879Z,975.41
2023-01-29T11:28:17.841Z,975.42
2023-01-29T11:29:17.767Z,975.38
2023-01-29T11:30:18.126Z,975.37
2023-01-29T11:31:17.742Z,975.36
2023-01-29T11:32:17.575Z,975.39
2023-01-29T11:33:17.518Z,975.38
2023-01-29T11:34:17.453Z,975.38
2023-01-29T11:35:17.410Z,975.39
2023-01-29T11:36:17.357Z,975.35
2023-01-29T11:37:17.279Z,975.32
2023-01-29T11:38:17.233Z,975.35
2023-01-29T11:39:17.149Z,975.30
2023-01-29T11:40:17.518Z,975.29
2023-01-29T11:41:17.032Z,975.33
2023-01-29T11:42:16.982Z,975.30
2023-01-29T11:43:16.906Z,975.27
2023-01-29T11:44:16.869Z,975.27
2023-01-29T11:45:16.793Z,975.30
2023-01-29T11:46:16.755Z,975.27
2023-01-29T11:47:16.695Z,975.24
2023-01-29T11:48:16.997Z,975.24
2023-01-29T11:49:20.924Z,975.23
2023-01-29T11:50:16.756Z,975.20
2023-01-29T11:51:16.422Z,975.21
2023-01-29T11:52:16.372Z,975.18
2023-01-29T11:53:16.318Z,975.23
2023-01-29T11:54:16.243Z,975.18
2023-01-29T11:55:16.195Z,975.17
2023-01-29T11:56:16.134Z,975.11
2023-01-29T11:57:16.069Z,975.09
2023-01-29T11:58:16.017Z,975.09
2023-01-29T11:59:15.951Z,975.13
2023-01-29T12:00:16.071Z,975.13
2023-01-29T12:01:15.833Z,975.15
2023-01-29T12:02:15.785Z,975.10
2023-01-29T12:03:15.710Z,975.03
2023-01-29T12:04:15.654Z,975.02
2023-01-29T12:05:15.589Z,975.06
2023-01-29T12:06:15.539Z,975.05
2023-01-29T12:07:15.474Z,975.03
2023-01-29T12:08:15.421Z,975.01
2023-01-29T12:09:16.845Z,974.99
2023-01-29T12:10:15.607Z,974.94
2023-01-29T12:11:15.233Z,974.93
2023-01-29T12:12:15.185Z,974.90
2023-01-29T12:13:15.133Z,974.91
2023-01-29T12:14:15.055Z,974.90
2023-01-29T12:15:14.993Z,974.90
2023-01-29T12:16:15.000Z,974.88
2023-01-29T12:17:14.868Z,974.87
2023-01-29T12:18:14.824Z,974.85
2023-01-29T12:19:14.767Z,974.82
2023-01-29T12:20:14.978Z,974.77
2023-01-29T12:21:14.639Z,974.82
2023-01-29T12:22:14.581Z,974.81
2023-01-29T12:23:14.521Z,974.77
2023-01-29T12:24:14.467Z,974.74
2023-01-29T12:25:14.387Z,974.73
2023-01-29T12:26:14.366Z,974.71
2023-01-29T12:27:14.280Z,974.70
2023-01-29T12:28:14.217Z,974.58